Time;durP1;ratioP1;P1;durP2;ratioP2;P2;SDS_P1;SDS_P2;PMS_P1;PMS_P2;Temp;Humidity;BMP_temperature;BMP_pressure;BME280_temperature;BME280_humidity;BME280_pressure;Samples;Min_cycle;Max_cycle;Signal;HPM_P1;HPM_P2
2022/09/22 00:00:08;;;;;;;3.80;2.42;;;;;;;10.03;68.28;100257.56;343229;28;1128;-85
2022/09/22 00:00:28;;;;;;;2.80;2.42;;;;;;;9.95;68.29;100263.75;343176;28;1056;-85
2022/09/22 00:00:42;;;;;;;3.50;2.55;;;;;;;9.95;68.74;100257.72;344366;28;1080;-84
2022/09/22 00:01:00;;;;;;;3.92;2.45;;;;;;;10.00;68.37;100259.34;343652;28;1176;-85
2022/09/22 00:01:28;;;;;;;4.07;2.50;;;;;;;9.97;68.71;100254.19;343457;28;1165;-85
2022/09/22 00:01:40;;;;;;;3.97;2.60;;;;;;;10.00;68.92;100254.16;343539;28;1135;-85
2022/09/22 00:01:52;;;;;;;4.13;2.50;;;;;;;10.03;68.71;100254.97;343301;28;1072;-85
2022/09/22 00:02:04;;;;;;;3.72;2.53;;;;;;;9.99;68.95;100257.63;343106;28;1261;-85
2022/09/22 00:02:16;;;;;;;3.83;2.53;;;;;;;10.02;69.21;100258.44;343479;28;1091;-85
2022/09/22 00:02:31;;;;;;;4.95;2.60;;;;;;;10.03;69.09;100257.56;343674;28;1079;-85
2022/09/22 00:02:43;;;;;;;4.72;2.50;;;;;;;10.04;68.79;100252.34;343734;28;953;-84
2022/09/22 00:02:57;;;;;;;5.03;2.45;;;;;;;10.06;68.44;100260.09;343519;28;1220;-85
2022/09/22 00:03:09;;;;;;;4.78;2.50;;;;;;;10.07;68.58;100256.63;343554;28;1103;-84
2022/09/22 00:03:22;;;;;;;3.78;2.33;;;;;;;10.07;68.23;100248.81;346396;28;947;-84
2022/09/22 00:03:38;;;;;;;3.03;2.30;;;;;;;10.05;68.17;100263.59;343503;28;1035;-85
2022/09/22 00:03:54;;;;;;;3.63;2.42;;;;;;;10.02;68.26;100258.44;343362;28;1060;-84
2022/09/22 00:04:09;;;;;;;4.32;2.50;;;;;;;10.00;68.42;100255.91;343299;28;1014;-84
2022/09/22 00:04:21;;;;;;;5.70;2.50;;;;;;;9.99;68.44;100260.22;343518;28;1574;-84
2022/09/22 00:04:37;;;;;;;5.70;2.50;;;;;;;10.02;68.53;100258.44;343184;28;975;-83
2022/09/22 00:04:50;;;;;;;3.60;2.40;;;;;;;9.95;68.86;100253.38;343165;28;939;-83
2022/09/22 00:05:02;;;;;;;3.85;2.50;;;;;;;9.93;68.91;100262.94;343358;28;1179;-84
2022/09/22 00:05:15;;;;;;;3.83;2.50;;;;;;;9.97;69.23;100262.00;344587;28;1203;-83
2022/09/22 00:05:26;;;;;;;3.75;2.60;;;;;;;9.93;68.78;100252.56;343808;28;1134;-84
2022/09/22 00:05:41;;;;;;;3.75;2.78;;;;;;;9.86;68.81;100258.78;344967;28;765;-84
2022/09/22 00:06:04;;;;;;;4.38;2.78;;;;;;;9.86;69.56;100261.38;345371;28;1067;-84
2022/09/22 00:06:22;;;;;;;4.45;2.78;;;;;;;9.77;69.19;100257.19;344903;28;1073;-85
2022/09/22 00:06:37;;;;;;;3.80;2.70;;;;;;;9.75;69.47;100256.38;344797;28;1204;-84
2022/09/22 00:06:52;;;;;;;3.35;2.60;;;;;;;9.74;69.67;100251.22;345044;28;1088;-84
2022/09/22 00:07:04;;;;;;;3.45;2.70;;;;;;;9.73;69.60;100254.69;344743;28;880;-85
2022/09/22 00:07:16;;;;;;;3.38;2.63;;;;;;;9.79;69.31;100259.75;344934;28;1070;-84
2022/09/22 00:07:28;;;;;;;3.38;2.63;;;;;;;9.81;69.07;100255.41;346659;28;813;-84
2022/09/22 00:07:40;;;;;;;4.05;2.67;;;;;;;9.78;69.08;100260.66;344987;28;1153;-85
2022/09/22 00:07:53;;;;;;;3.85;2.60;;;;;;;9.80;69.17;100253.69;344922;28;1183;-84
2022/09/22 00:08:05;;;;;;;4.23;2.73;;;;;;;9.75;69.46;100251.19;344714;28;1183;-84
2022/09/22 00:08:17;;;;;;;5.28;2.90;;;;;;;9.72;69.29;100253.84;344607;28;1082;-84
2022/09/22 00:08:34;;;;;;;4.68;2.92;;;;;;;9.75;69.25;100258.13;344311;28;1012;-85
2022/09/22 00:08:50;;;;;;;4.25;2.88;;;;;;;9.78;69.72;100255.47;343504;28;964;-85
2022/09/22 00:09:03;;;;;;;5.20;2.75;;;;;;;9.79;69.51;100251.97;343591;28;1184;-84
2022/09/22 00:09:19;;;;;;;4.65;2.65;;;;;;;9.82;69.50;100257.13;343732;28;1042;-84
2022/09/22 00:09:31;;;;;;;4.18;2.67;;;;;;;9.81;69.44;100255.41;342602;28;1121;-85
2022/09/22 00:09:43;;;;;;;4.85;2.70;;;;;;;9.81;69.07;100250.22;343365;28;1008;-84
2022/09/22 00:09:57;;;;;;;4.35;2.55;;;;;;;9.81;69.15;100258.00;343809;28;972;-85
2022/09/22 00:10:09;;;;;;;3.95;2.58;;;;;;;9.78;69.36;100255.47;343441;28;908;-84
2022/09/22 00:10:21;;;;;;;4.80;2.50;;;;;;;9.81;69.41;100255.41;343867;28;983;-85
2022/09/22 00:10:33;;;;;;;4.20;2.58;;;;;;;9.82;69.42;100257.13;345639;28;1112;-84
2022/09/22 00:10:57;;;;;;;4.40;2.58;;;;;;;9.71;69.55;100252.13;346290;28;1050;-85
2022/09/22 00:11:18;;;;;;;3.72;2.65;;;;;;;9.68;69.81;100253.91;346661;28;1153;-84
2022/09/22 00:11:36;;;;;;;3.80;2.90;;;;;;;9.65;70.02;100254.00;346440;28;1189;-85
2022/09/22 00:11:50;;;;;;;5.05;2.85;;;;;;;9.65;69.97;100256.59;344814;28;872;-84
2022/09/22 00:12:05;;;;;;;4.47;2.78;;;;;;;9.68;69.83;100249.59;344681;28;1300;-84
2022/09/22 00:12:17;;;;;;;4.50;2.85;;;;;;;9.71;69.71;100257.31;344888;28;1017;-84
2022/09/22 00:12:29;;;;;;;4.68;2.72;;;;;;;9.77;69.76;100259.78;343654;28;1091;-84
2022/09/22 00:12:46;;;;;;;6.57;2.88;;;;;;;9.75;69.61;100255.53;343445;28;1739;-84
2022/09/22 00:12:58;;;;;;;6.22;2.80;;;;;;;9.72;69.62;100256.44;343466;28;1000;-84
2022/09/22 00:13:09;;;;;;;4.55;2.70;;;;;;;9.70;69.55;100257.34;343691;28;1075;-84
2022/09/22 00:13:21;;;;;;;3.40;2.60;;;;;;;9.68;69.53;100254.78;343460;28;1907;-85
2022/09/22 00:13:36;;;;;;;3.33;2.60;;;;;;;9.48;69.97;100255.16;344729;28;979;-84
2022/09/22 00:13:57;;;;;;;3.47;2.78;;;;;;;9.35;70.23;100257.09;343630;28;1137;-85
2022/09/22 00:14:11;;;;;;;3.78;2.72;;;;;;;9.43;70.75;100262.16;343644;28;1044;-84
2022/09/22 00:14:25;;;;;;;4.28;2.63;;;;;;;9.49;71.09;100256.00;343619;28;1692;-84
2022/09/22 00:14:37;;;;;;;4.40;2.80;;;;;;;9.52;71.08;100256.81;344736;28;1095;-84
2022/09/22 00:14:50;;;;;;;4.15;2.88;;;;;;;9.52;70.54;100254.22;344712;28;1116;-84
2022/09/22 00:15:03;;;;;;;4.30;2.83;;;;;;;9.42;71.20;100263.06;343637;28;1200;-85
2022/09/22 00:15:17;;;;;;;4.22;2.90;;;;;;;9.38;71.00;100256.22;343472;28;1032;-85
2022/09/22 00:15:29;;;;;;;4.22;2.78;;;;;;;9.45;71.33;100257.81;343380;28;1127;-84
2022/09/22 00:15:44;;;;;;;4.60;2.80;;;;;;;9.51;70.89;100254.25;343518;28;1074;-84
2022/09/22 00:15:57;;;;;;;4.55;2.75;;;;;;;9.54;70.50;100255.06;343548;28;1160;-84
2022/09/22 00:16:12;;;;;;;4.50;2.80;;;;;;;9.58;70.68;100254.09;344595;28;1063;-84
2022/09/22 00:16:55;;;;;;;3.38;2.75;;;;;;;9.60;70.32;100252.34;343316;28;1511;-84
2022/09/22 00:17:07;;;;;;;3.50;2.60;;;;;;;9.64;70.19;100258.34;344798;28;1204;-84
2022/09/22 00:17:22;;;;;;;6.50;2.50;;;;;;;9.65;70.13;100259.19;343855;28;913;-84
2022/09/22 00:17:34;;;;;;;7.10;2.70;;;;;;;9.59;70.16;100253.22;343747;28;1125;-84
2022/09/22 00:17:46;;;;;;;5.47;2.80;;;;;;;9.57;70.30;100256.72;343511;28;1142;-84
2022/09/22 00:17:58;;;;;;;4.13;2.60;;;;;;;9.59;70.23;100255.81;343451;28;1161;-84
2022/09/22 00:18:10;;;;;;;3.90;2.63;;;;;;;9.63;69.96;100255.75;342269;28;1104;-84
2022/09/22 00:18:24;;;;;;;3.67;2.55;;;;;;;9.62;70.49;100259.22;342125;28;1003;-85
2022/09/22 00:18:36;;;;;;;4.13;2.60;;;;;;;9.50;70.17;100260.34;341953;28;1707;-84
2022/09/22 00:18:48;;;;;;;4.18;2.63;;;;;;;9.45;70.37;100256.94;343394;28;1107;-85
2022/09/22 00:19:00;;;;;;;4.32;2.53;;;;;;;9.46;70.48;100254.34;342445;28;1148;-84
2022/09/22 00:19:24;;;;;;;4.28;2.58;;;;;;;9.46;70.71;100258.69;343501;28;1020;-84
2022/09/22 00:19:37;;;;;;;4.57;2.80;;;;;;;9.43;70.65;100256.97;344851;28;1059;-85
2022/09/22 00:19:49;;;;;;;3.55;2.60;;;;;;;9.45;70.97;100256.94;344919;28;1181;-85
2022/09/22 00:20:01;;;;;;;3.90;2.67;;;;;;;9.42;70.70;100257.88;344965;28;1079;-85
2022/09/22 00:20:13;;;;;;;3.53;2.70;;;;;;;9.45;70.96;100252.63;345459;28;1000;-85
2022/09/22 00:20:24;;;;;;;4.43;2.65;;;;;;;9.48;71.04;100256.91;345816;28;1074;-84
2022/09/22 00:20:37;;;;;;;4.40;2.67;;;;;;;9.49;70.81;100249.06;346140;28;1180;-84
2022/09/22 00:20:50;;;;;;;3.47;2.78;;;;;;;9.49;70.93;100249.06;346095;28;1051;-84
2022/09/22 00:21:08;;;;;;;3.50;2.75;;;;;;;9.51;70.75;100252.50;346086;28;1039;-83
2022/09/22 00:21:21;;;;;;;3.83;2.83;;;;;;;9.50;70.51;100249.97;346258;28;1081;-83
2022/09/22 00:21:34;;;;;;;4.18;2.88;;;;;;;9.50;70.54;100249.97;346146;28;1051;-84
2022/09/22 00:21:47;;;;;;;4.32;2.83;;;;;;;9.45;70.72;100252.63;346267;28;1226;-84
2022/09/22 00:21:59;;;;;;;4.03;2.83;;;;;;;9.41;70.48;100250.97;345841;28;1331;-84
2022/09/22 00:22:11;;;;;;;4.05;2.90;;;;;;;9.35;70.72;100251.91;345178;28;809;-84
2022/09/22 00:22:23;;;;;;;3.70;2.83;;;;;;;9.40;70.94;100254.44;344877;28;1246;-84
2022/09/22 00:22:35;;;;;;;3.88;2.70;;;;;;;9.44;71.25;100253.50;344803;28;1177;-85
2022/09/22 00:22:50;;;;;;;3.83;2.67;;;;;;;9.47;70.85;100250.84;344450;28;1050;-85
2022/09/22 00:23:02;;;;;;;4.47;2.80;;;;;;;9.49;70.79;100254.25;344910;28;1091;-84
2022/09/22 00:23:14;;;;;;;5.15;2.70;;;;;;;9.51;70.97;100247.31;344914;28;1206;-84
2022/09/22 00:23:27;;;;;;;4.97;2.63;;;;;;;9.52;70.85;100249.03;344904;28;1071;-85
2022/09/22 00:23:41;;;;;;;3.78;2.67;;;;;;;9.51;70.70;100249.91;343550;28;1214;-84
2022/09/22 00:23:54;;;;;;;3.53;2.75;;;;;;;9.55;70.67;100253.31;344637;28;1171;-85
2022/09/22 00:24:06;;;;;;;3.72;2.90;;;;;;;9.56;70.49;100249.84;343787;28;858;-84
2022/09/22 00:24:24;;;;;;;4.72;3.05;;;;;;;9.58;70.40;100248.91;343428;28;1150;-84
2022/09/22 00:24:36;;;;;;;4.32;2.88;;;;;;;9.62;70.27;100243.66;344130;28;1050;-85
2022/09/22 00:24:48;;;;;;;3.97;2.80;;;;;;;9.64;70.31;100252.25;344939;28;910;-85
2022/09/22 00:25:01;;;;;;;3.90;2.60;;;;;;;9.66;70.00;100250.50;343475;28;1207;-85
2022/09/22 00:25:13;;;;;;;3.53;2.50;;;;;;;9.65;70.21;100254.00;343788;28;1006;-84
2022/09/22 00:25:25;;;;;;;4.35;2.63;;;;;;;9.65;70.43;100254.00;343720;28;1165;-84
2022/09/22 00:25:40;;;;;;;4.88;2.80;;;;;;;9.66;70.38;100250.50;343325;28;1178;-84
2022/09/22 00:25:52;;;;;;;4.30;2.83;;;;;;;9.68;69.84;100243.53;343492;28;1018;-84
2022/09/22 00:26:07;;;;;;;2.95;2.65;;;;;;;9.67;69.81;100247.03;343925;28;753;-85
2022/09/22 00:26:21;;;;;;;2.95;2.65;;;;;;;9.66;70.12;100250.50;343526;28;1526;-84
2022/09/22 00:26:34;;;;;;;2.88;2.42;;;;;;;9.65;70.10;100249.66;344462;28;1090;-85
2022/09/22 00:26:47;;;;;;;2.70;2.33;;;;;;;9.66;70.37;100248.78;343601;28;1096;-85
2022/09/22 00:27:00;;;;;;;2.78;2.47;;;;;;;9.67;70.23;100247.88;343420;28;1187;-85
2022/09/22 00:27:11;;;;;;;3.17;2.60;;;;;;;9.68;70.21;100248.72;343746;28;1092;-84
2022/09/22 00:27:24;;;;;;;3.57;2.73;;;;;;;9.67;70.41;100247.03;343488;28;1112;-85
2022/09/22 00:27:36;;;;;;;4.18;2.90;;;;;;;9.66;70.44;100246.19;343516;28;1040;-85
2022/09/22 00:27:53;;;;;;;4.75;3.05;;;;;;;9.68;70.22;100248.72;343562;28;1132;-85
2022/09/22 00:28:05;;;;;;;4.13;2.80;;;;;;;9.63;70.56;100245.38;343662;28;1706;-84
2022/09/22 00:28:18;;;;;;;3.80;2.60;;;;;;;9.65;70.48;100248.78;343387;28;1004;-84
2022/09/22 00:28:31;;;;;;;4.28;2.70;;;;;;;9.59;70.47;100242.81;343376;28;1012;-84
2022/09/22 00:28:46;;;;;;;4.28;2.72;;;;;;;9.65;70.43;100254.00;343415;28;1201;-83
2022/09/22 00:29:00;;;;;;;4.22;2.60;;;;;;;9.70;69.99;100244.34;343823;28;1028;-84
2022/09/22 00:29:12;;;;;;;3.85;2.45;;;;;;;9.67;70.13;100247.88;343546;28;845;-84
2022/09/22 00:29:26;;;;;;;3.58;2.60;;;;;;;9.68;70.09;100253.91;343435;28;1104;-83
2022/09/22 00:29:38;;;;;;;3.75;2.80;;;;;;;9.65;70.03;100243.59;343915;28;801;-84
2022/09/22 00:29:50;;;;;;;3.88;2.70;;;;;;;9.66;69.92;100245.31;344061;28;1190;-84
2022/09/22 00:30:03;;;;;;;5.93;2.90;;;;;;;9.65;69.86;100243.59;346149;28;1019;-84
2022/09/22 00:30:15;;;;;;;5.75;2.90;;;;;;;9.62;69.98;100254.03;346110;28;1043;-84
2022/09/22 00:30:27;;;;;;;4.97;2.75;;;;;;;9.64;70.10;100247.06;345967;28;1058;-84
2022/09/22 00:30:41;;;;;;;4.38;2.50;;;;;;;9.61;69.94;100248.00;346117;28;1078;-85
2022/09/22 00:30:53;;;;;;;2.97;2.50;;;;;;;9.55;70.09;100254.16;344976;28;1006;-85
2022/09/22 00:31:11;;;;;;;3.42;2.67;;;;;;;9.55;69.95;100251.56;344627;28;1059;-83
2022/09/22 00:31:24;;;;;;;5.38;3.05;;;;;;;9.63;69.88;100247.97;345103;28;956;-83
2022/09/22 00:31:39;;;;;;;5.13;2.97;;;;;;;9.65;69.68;100251.41;345857;28;1355;-84
2022/09/22 00:31:51;;;;;;;3.15;2.50;;;;;;;9.58;69.81;100248.91;344636;28;1022;-84
2022/09/22 00:32:03;;;;;;;3.17;2.60;;;;;;;9.59;69.80;100245.41;344349;28;1417;-84
2022/09/22 00:32:18;;;;;;;3.80;2.80;;;;;;;9.60;69.71;100247.16;343384;28;1012;-84
2022/09/22 00:32:30;;;;;;;3.97;2.88;;;;;;;9.62;69.53;100251.44;343542;28;1076;-83
2022/09/22 00:32:42;;;;;;;3.67;2.72;;;;;;;9.60;69.87;100246.31;343306;28;1033;-85
2022/09/22 00:32:55;;;;;;;3.60;2.50;;;;;;;9.55;69.80;100248.97;344143;28;1083;-85
2022/09/22 00:33:08;;;;;;;3.50;2.55;;;;;;;9.59;70.09;100250.63;343691;28;987;-85
2022/09/22 00:33:20;;;;;;;3.47;2.53;;;;;;;9.55;69.94;100254.16;343372;28;1008;-83
2022/09/22 00:33:33;;;;;;;3.80;2.50;;;;;;;9.59;70.37;100244.56;342883;28;978;-83
2022/09/22 00:33:45;;;;;;;4.22;2.50;;;;;;;9.62;69.74;100247.13;345131;28;1346;-83
2022/09/22 00:33:57;;;;;;;4.47;2.63;;;;;;;9.64;69.59;100247.94;345066;28;886;-83
2022/09/22 00:34:21;;;;;;;4.35;2.63;;;;;;;9.65;69.39;100244.44;345790;28;1099;-83
2022/09/22 00:34:33;;;;;;;3.70;2.50;;;;;;;9.62;69.50;100248.84;344689;28;1189;-84
2022/09/22 00:34:45;;;;;;;4.05;2.45;;;;;;;9.53;69.48;100255.06;344611;28;1076;-84
2022/09/22 00:34:57;;;;;;;5.05;2.53;;;;;;;9.54;69.85;100246.41;344992;28;1087;-84
2022/09/22 00:35:09;;;;;;;5.05;2.65;;;;;;;9.55;69.79;100254.16;344601;28;1906;-83
2022/09/22 00:35:21;;;;;;;4.35;2.50;;;;;;;9.58;69.28;100254.09;343559;28;1063;-84
2022/09/22 00:35:36;;;;;;;3.22;2.40;;;;;;;9.57;69.58;100249.78;343365;28;1004;-84
2022/09/22 00:35:59;;;;;;;3.08;2.40;;;;;;;9.48;70.33;100247.38;342706;28;1024;-84
2022/09/22 00:36:12;;;;;;;3.20;2.38;;;;;;;9.49;70.15;100254.25;342543;28;847;-83
2022/09/22 00:36:26;;;;;;;3.88;2.47;;;;;;;9.51;70.06;100247.31;342165;28;1027;-83
2022/09/22 00:36:38;;;;;;;4.10;2.60;;;;;;;9.49;70.13;100249.06;342657;28;1047;-84
2022/09/22 00:36:50;;;;;;;3.47;2.53;;;;;;;9.48;70.36;100252.56;343215;28;1087;-84
2022/09/22 00:37:02;;;;;;;3.55;2.50;;;;;;;9.49;70.16;100251.66;342352;28;1160;-83
2022/09/22 00:37:14;;;;;;;3.95;2.50;;;;;;;9.46;70.17;100249.16;342349;28;1023;-83
2022/09/22 00:37:26;;;;;;;4.22;2.50;;;;;;;9.37;70.41;100249.31;343140;28;1232;-84
2022/09/22 00:37:38;;;;;;;4.78;2.50;;;;;;;9.38;70.44;100245.84;343221;28;1072;-84
2022/09/22 00:37:50;;;;;;;4.95;2.40;;;;;;;9.40;70.36;100254.44;343488;28;1162;-84
2022/09/22 00:38:04;;;;;;;5.72;2.70;;;;;;;9.42;70.21;100246.63;343333;28;1046;-83
2022/09/22 00:38:16;;;;;;;4.43;2.63;;;;;;;9.43;70.23;100249.19;343796;28;1119;-83
2022/09/22 00:38:28;;;;;;;4.53;2.78;;;;;;;9.46;69.98;100246.56;343513;28;1028;-83
2022/09/22 00:38:41;;;;;;;3.17;2.47;;;;;;;9.41;70.24;100250.97;343328;28;1054;-83
2022/09/22 00:38:57;;;;;;;3.30;2.58;;;;;;;9.40;70.25;100244.91;343457;28;1004;-84
2022/09/22 00:39:09;;;;;;;3.10;2.60;;;;;;;9.40;70.37;100246.66;343632;28;1012;-83
2022/09/22 00:39:21;;;;;;;2.88;2.50;;;;;;;9.36;70.36;100250.22;344417;28;1161;-83
2022/09/22 00:39:34;;;;;;;3.45;2.60;;;;;;;9.33;70.71;100252.84;342195;28;1202;-84
2022/09/22 00:39:45;;;;;;;3.67;2.70;;;;;;;9.33;70.64;100253.69;341963;28;1006;-83
2022/09/22 00:39:57;;;;;;;3.58;2.60;;;;;;;9.29;70.61;100251.19;341170;29;1193;-83
2022/09/22 00:40:10;;;;;;;3.03;2.45;;;;;;;9.32;70.74;100245.97;341004;29;1200;-83
2022/09/22 00:40:22;;;;;;;4.72;2.58;;;;;;;9.36;70.51;100250.22;340449;29;1133;-83
2022/09/22 00:40:35;;;;;;;4.82;2.70;;;;;;;9.32;70.61;100240.78;341263;29;738;-83
2022/09/22 00:40:47;;;;;;;4.60;2.83;;;;;;;9.37;70.43;100244.97;341293;29;750;-83
2022/09/22 00:41:00;;;;;;;3.83;2.88;;;;;;;9.36;70.29;100250.22;340712;29;1076;-84
2022/09/22 00:41:27;;;;;;;4.20;2.70;;;;;;;9.35;70.64;100245.88;340557;28;1134;-83
2022/09/22 00:41:42;;;;;;;3.65;2.45;;;;;;;9.34;70.47;100247.63;341939;28;973;-84
2022/09/22 00:41:55;;;;;;;5.13;2.70;;;;;;;9.29;70.66;100246.00;343226;28;1069;-82
2022/09/22 00:42:08;;;;;;;6.40;2.80;;;;;;;9.33;70.53;100252.84;343517;28;1455;-84
2022/09/22 00:42:22;;;;;;;4.80;2.63;;;;;;;9.36;70.61;100255.41;343539;28;868;-83
2022/09/22 00:42:33;;;;;;;3.70;2.50;;;;;;;9.37;70.16;100249.31;343845;28;1003;-84
2022/09/22 00:42:45;;;;;;;2.75;2.33;;;;;;;9.37;70.25;100249.31;342118;28;1072;-85
2022/09/22 00:43:19;;;;;;;2.92;2.50;;;;;;;9.40;70.18;100250.13;342213;28;1187;-83
2022/09/22 00:43:36;;;;;;;7.28;2.70;;;;;;;9.36;70.31;100247.59;342483;28;1015;-83
2022/09/22 00:44:10;;;;;;;5.03;2.50;;;;;;;9.37;70.26;100254.50;342250;28;1200;-83
2022/09/22 00:44:31;;;;;;;4.80;2.90;;;;;;;9.28;70.74;100249.50;341921;28;1052;-84
2022/09/22 00:44:43;;;;;;;4.20;2.70;;;;;;;9.27;70.83;100252.94;342485;28;1071;-84
2022/09/22 00:44:55;;;;;;;4.20;2.80;;;;;;;9.27;70.91;100252.94;343861;28;958;-84
2022/09/22 00:45:10;;;;;;;4.50;2.80;;;;;;;9.27;70.73;100253.78;342400;28;1070;-84
2022/09/22 00:45:23;;;;;;;3.67;2.50;;;;;;;9.27;70.93;100258.13;342158;28;1159;-83
2022/09/22 00:45:35;;;;;;;4.35;2.60;;;;;;;9.24;70.73;100245.25;342097;28;1170;-84
2022/09/22 00:46:07;;;;;;;4.55;2.70;;;;;;;9.19;71.16;100248.78;342466;28;869;-84
2022/09/22 00:46:27;;;;;;;4.05;2.78;;;;;;;9.16;70.94;100250.56;341959;28;1016;-84
2022/09/22 00:46:41;;;;;;;3.58;2.70;;;;;;;9.16;71.35;100251.41;342134;28;1017;-84
2022/09/22 00:46:59;;;;;;;3.05;2.72;;;;;;;9.16;71.18;100250.56;342278;28;1056;-84
2022/09/22 00:47:16;;;;;;;3.00;2.70;;;;;;;9.22;71.02;100250.44;343692;28;1199;-84
2022/09/22 00:47:36;;;;;;;3.25;2.50;;;;;;;9.27;71.29;100252.94;342132;28;1008;-84
2022/09/22 00:47:49;;;;;;;3.38;2.53;;;;;;;9.32;70.99;100246.81;340872;29;1028;-84
2022/09/22 00:48:01;;;;;;;3.13;2.53;;;;;;;9.33;70.71;100252.84;339587;29;1546;-84
2022/09/22 00:48:13;;;;;;;3.33;2.60;;;;;;;9.35;70.76;100240.69;339575;29;1069;-85
2022/09/22 00:48:29;;;;;;;4.13;2.63;;;;;;;9.35;70.67;100251.06;338307;29;1171;-83
2022/09/22 00:48:48;;;;;;;4.13;2.65;;;;;;;9.37;70.60;100255.34;338248;29;1052;-83
2022/09/22 00:49:04;;;;;;;3.55;2.50;;;;;;;9.41;70.31;100245.78;338247;29;1113;-84
2022/09/22 00:49:19;;;;;;;4.13;2.42;;;;;;;9.39;70.27;100247.53;338606;29;824;-84
2022/09/22 00:49:40;;;;;;;3.58;2.55;;;;;;;9.39;70.29;100244.94;339151;29;1193;-83
2022/09/22 00:49:57;;;;;;;3.65;2.70;;;;;;;9.37;70.06;100254.50;340358;29;1634;-83
2022/09/22 00:50:15;;;;;;;3.42;2.50;;;;;;;9.38;70.41;100251.03;342059;28;1157;-84
2022/09/22 00:50:27;;;;;;;3.20;2.50;;;;;;;9.40;70.30;100254.44;341320;28;1199;-84
2022/09/22 00:50:39;;;;;;;3.42;2.60;;;;;;;9.29;70.52;100251.19;342450;28;1035;-84
2022/09/22 00:50:53;;;;;;;3.13;2.50;;;;;;;9.28;70.81;100254.69;342430;28;1581;-85
2022/09/22 00:51:08;;;;;;;2.60;2.28;;;;;;;9.23;70.94;100246.09;342580;28;807;-84
2022/09/22 00:51:24;;;;;;;2.88;2.38;;;;;;;9.26;70.84;100251.25;342291;28;1053;-84
2022/09/22 00:51:38;;;;;;;3.70;2.75;;;;;;;9.28;70.81;100245.16;340956;29;1784;-84
2022/09/22 00:51:50;;;;;;;3.97;2.65;;;;;;;9.30;70.73;100248.56;341128;28;994;-84
2022/09/22 00:52:02;;;;;;;4.57;2.65;;;;;;;9.31;70.50;100250.25;341036;28;1345;-85
2022/09/22 00:52:18;;;;;;;4.13;2.60;;;;;;;9.31;70.98;100245.06;342217;29;1064;-84
2022/09/22 00:52:50;;;;;;;3.47;2.70;;;;;;;9.36;70.54;100251.06;340712;29;1309;-84
2022/09/22 00:53:08;;;;;;;2.92;2.60;;;;;;;9.35;71.15;100256.25;340795;29;1140;-85
2022/09/22 00:53:23;;;;;;;2.97;2.38;;;;;;;9.36;70.81;100251.06;340811;29;1096;-84
2022/09/22 00:53:35;;;;;;;3.22;2.53;;;;;;;9.38;70.62;100245.84;341044;28;1047;-84
2022/09/22 00:53:47;;;;;;;2.90;2.58;;;;;;;9.36;70.65;100243.25;342143;28;1000;-84
2022/09/22 00:54:03;;;;;;;2.90;2.60;;;;;;;9.38;70.41;100245.84;342353;28;924;-84
2022/09/22 00:54:17;;;;;;;3.13;2.60;;;;;;;9.39;70.36;100244.94;342399;28;1087;-84
2022/09/22 00:54:30;;;;;;;3.47;2.67;;;;;;;9.40;70.42;100241.47;342609;28;1141;-84
2022/09/22 00:54:42;;;;;;;4.50;2.80;;;;;;;9.40;70.53;100241.47;343909;28;1231;-84
2022/09/22 00:54:58;;;;;;;4.75;2.70;;;;;;;9.39;70.52;100242.34;344235;28;917;-84
2022/09/22 00:55:27;;;;;;;4.25;2.75;;;;;;;9.40;70.86;100244.06;343478;28;934;-84
2022/09/22 00:55:54;;;;;;;3.97;2.63;;;;;;;9.26;71.06;100246.06;343586;28;1071;-85
2022/09/22 00:56:13;;;;;;;3.70;2.78;;;;;;;9.31;71.25;100244.22;342237;28;1049;-84
2022/09/22 00:56:33;;;;;;;3.53;2.90;;;;;;;9.36;71.21;100245.00;342266;28;1007;-84
2022/09/22 00:57:07;;;;;;;3.83;2.78;;;;;;;9.39;70.78;100242.34;342103;28;1046;-85
2022/09/22 00:57:22;;;;;;;3.60;2.80;;;;;;;9.42;70.35;100242.31;342987;28;1886;-84
2022/09/22 00:57:36;;;;;;;2.80;2.40;;;;;;;9.47;70.24;100245.66;342444;28;867;-84
2022/09/22 00:57:50;;;;;;;3.13;2.42;;;;;;;9.48;70.14;100242.19;341869;28;1116;-85
2022/09/22 00:58:07;;;;;;;3.55;2.58;;;;;;;9.47;70.51;100240.47;341083;28;1055;-84
2022/09/22 00:58:25;;;;;;;3.97;2.70;;;;;;;9.42;71.07;100242.31;340795;29;1134;-84
2022/09/22 00:58:43;;;;;;;4.75;2.90;;;;;;;9.43;71.00;100237.97;340909;29;1198;-84
2022/09/22 00:59:15;;;;;;;4.70;2.67;;;;;;;9.41;71.02;100240.56;340958;29;1030;-83
2022/09/22 00:59:27;;;;;;;4.88;2.67;;;;;;;9.41;70.70;100243.19;340698;29;1044;-85
2022/09/22 00:59:41;;;;;;;6.50;2.95;;;;;;;9.44;70.80;100245.72;340788;29;1040;-85
2022/09/22 00:59:54;;;;;;;5.40;2.88;;;;;;;9.42;70.88;100244.91;341200;29;1033;-83
2022/09/22 01:00:09;;;;;;;4.80;2.85;;;;;;;9.45;70.74;100239.63;340659;29;1037;-84
2022/09/22 01:00:22;;;;;;;3.30;2.70;;;;;;;9.35;70.75;100240.69;339974;29;1237;-85
2022/09/22 01:00:34;;;;;;;3.78;2.80;;;;;;;9.33;70.97;100237.28;339338;29;1012;-85
2022/09/22 01:00:46;;;;;;;4.03;2.70;;;;;;;9.32;70.96;100241.63;339463;29;1201;-85
2022/09/22 01:00:59;;;;;;;3.75;2.67;;;;;;;9.32;70.97;100245.97;340674;29;727;-86
2022/09/22 01:01:13;;;;;;;4.60;2.70;;;;;;;9.30;70.82;100239.94;341248;29;789;-85
2022/09/22 01:01:26;;;;;;;4.43;2.60;;;;;;;9.30;71.20;100239.94;339617;29;1082;-85
2022/09/22 01:01:39;;;;;;;3.58;2.55;;;;;;;9.29;71.40;100243.41;339708;29;1069;-85
2022/09/22 01:01:51;;;;;;;3.85;2.60;;;;;;;9.31;71.20;100246.81;339520;29;1144;-86
2022/09/22 01:02:04;;;;;;;3.67;2.60;;;;;;;9.33;71.10;100247.66;339640;29;1265;-85
2022/09/22 01:02:16;;;;;;;3.92;2.63;;;;;;;9.36;71.13;100239.81;339677;29;1057;-86
2022/09/22 01:02:28;;;;;;;4.45;2.60;;;;;;;9.37;71.20;100247.56;341518;29;1191;-85
2022/09/22 01:02:40;;;;;;;4.82;2.53;;;;;;;9.38;71.23;100240.66;341224;29;1221;-86
2022/09/22 01:02:56;;;;;;;4.63;2.50;;;;;;;9.37;70.86;100242.38;341001;29;1250;-85
2022/09/22 01:03:13;;;;;;;4.15;2.55;;;;;;;9.39;70.55;100242.34;340859;29;1105;-85
2022/09/22 01:03:28;;;;;;;4.07;2.50;;;;;;;9.40;70.65;100244.06;342545;28;1002;-85
2022/09/22 01:03:42;;;;;;;3.78;2.60;;;;;;;9.35;70.47;100241.53;342077;28;1144;-85
2022/09/22 01:03:55;;;;;;;4.32;2.70;;;;;;;9.35;70.85;100251.06;342297;28;1118;-85
2022/09/22 01:04:07;;;;;;;4.50;2.70;;;;;;;9.38;70.61;100245.84;342155;28;1234;-85
2022/09/22 01:04:19;;;;;;;3.67;2.80;;;;;;;9.35;71.13;100240.69;340955;29;1089;-85
2022/09/22 01:04:31;;;;;;;3.33;2.70;;;;;;;9.33;70.85;100248.50;339707;29;1056;-85
2022/09/22 01:04:44;;;;;;;4.22;2.63;;;;;;;9.33;71.06;100245.06;339492;29;1150;-85
2022/09/22 01:04:56;;;;;;;4.60;2.63;;;;;;;9.34;70.96;100239.00;339955;29;1059;-85
2022/09/22 01:05:08;;;;;;;4.13;2.63;;;;;;;9.32;71.06;100240.78;340922;29;1075;-85
2022/09/22 01:05:23;;;;;;;4.78;2.70;;;;;;;9.27;70.94;100237.38;338660;29;1108;-84
2022/09/22 01:05:36;;;;;;;4.38;2.60;;;;;;;9.27;70.76;100247.75;338467;29;1010;-84
2022/09/22 01:05:53;;;;;;;3.35;2.47;;;;;;;9.25;70.85;100245.19;338321;29;1228;-83
2022/09/22 01:06:08;;;;;;;3.65;2.60;;;;;;;9.23;70.59;100246.09;338330;29;958;-83
2022/09/22 01:06:25;;;;;;;5.40;2.63;;;;;;;9.25;70.57;100244.34;337229;29;959;-84
2022/09/22 01:06:39;;;;;;;5.32;2.60;;;;;;;9.23;70.81;100244.34;339594;29;1761;-85
2022/09/22 01:06:53;;;;;;;5.10;2.70;;;;;;;9.26;70.94;100246.06;340967;29;965;-86
2022/09/22 01:07:06;;;;;;;4.20;2.70;;;;;;;9.28;70.39;100246.91;340975;29;1072;-86
2022/09/22 01:07:21;;;;;;;3.20;2.67;;;;;;;9.31;70.47;100249.41;340871;29;1097;-85
2022/09/22 01:07:34;;;;;;;3.58;2.72;;;;;;;9.30;70.88;100247.72;340246;29;930;-85
2022/09/22 01:07:47;;;;;;;3.72;2.85;;;;;;;9.34;70.99;100247.63;341367;29;1119;-85
2022/09/22 01:08:01;;;;;;;3.72;2.80;;;;;;;9.32;71.04;100249.41;341067;29;1042;-85
2022/09/22 01:08:15;;;;;;;3.45;2.72;;;;;;;9.31;71.07;100250.25;340971;29;1043;-86
2022/09/22 01:08:30;;;;;;;5.63;2.70;;;;;;;9.34;71.01;100250.22;340752;29;1189;-85
2022/09/22 01:08:43;;;;;;;5.75;2.70;;;;;;;9.34;70.91;100249.38;342109;28;1098;-85
2022/09/22 01:08:56;;;;;;;4.20;2.65;;;;;;;9.36;70.62;100240.69;342434;28;1039;-85
2022/09/22 01:09:09;;;;;;;3.90;2.58;;;;;;;9.40;70.62;100244.91;342235;28;1068;-85
2022/09/22 01:09:22;;;;;;;3.88;2.70;;;;;;;9.41;70.75;100245.78;342245;28;1094;-85
2022/09/22 01:09:34;;;;;;;3.55;2.90;;;;;;;9.38;70.67;100244.09;342470;28;838;-85
2022/09/22 01:09:46;;;;;;;4.70;2.90;;;;;;;9.37;71.01;100244.97;343820;28;745;-85
2022/09/22 01:09:58;;;;;;;5.45;2.88;;;;;;;9.29;70.94;100248.59;343376;28;1176;-84